sensor_id;sensor_type;location;lat;lon;timestamp;pressure;altitude;pressure_sealevel;temperature;humidity
13593;BME280;6867;50.998;4.250;2024-03-17T00:00:22;101897.13;;;8.53;76.55
13593;BME280;6867;50.998;4.250;2024-03-17T00:02:49;101891.94;;;8.67;76.58
13593;BME280;6867;50.998;4.250;2024-03-17T00:05:16;101886.25;;;8.79;76.71
13593;BME280;6867;50.998;4.250;2024-03-17T00:07:44;101890.78;;;8.86;76.73
13593;BME280;6867;50.998;4.250;2024-03-17T00:10:09;101889.25;;;9.08;76.42
13593;BME280;6867;50.998;4.250;2024-03-17T00:12:36;101873.94;;;9.25;75.89
13593;BME280;6867;50.998;4.250;2024-03-17T00:15:02;101876.91;;;9.38;75.49
13593;BME280;6867;50.998;4.250;2024-03-17T00:17:29;101868.53;;;9.41;75.66
13593;BME280;6867;50.998;4.250;2024-03-17T00:19:55;101860.13;;;9.44;75.30
13593;BME280;6867;50.998;4.250;2024-03-17T00:22:23;101847.16;;;9.56;74.63
13593;BME280;6867;50.998;4.250;2024-03-17T00:24:49;101864.66;;;9.44;75.24
13593;BME280;6867;50.998;4.250;2024-03-17T00:27:16;101873.69;;;9.51;75.12
13593;BME280;6867;50.998;4.250;2024-03-17T00:29:42;101873.69;;;9.51;75.38
13593;BME280;6867;50.998;4.250;2024-03-17T00:32:08;101854.66;;;9.69;74.96
13593;BME280;6867;50.998;4.250;2024-03-17T00:34:35;101845.09;;;9.75;74.47
13593;BME280;6867;50.998;4.250;2024-03-17T00:37:02;101846.25;;;9.72;74.60
13593;BME280;6867;50.998;4.250;2024-03-17T00:39:29;101835.22;;;9.67;74.25
13593;BME280;6867;50.998;4.250;2024-03-17T00:41:57;101839.69;;;9.43;74.18
13593;BME280;6867;50.998;4.250;2024-03-17T00:44:23;101844.16;;;9.20;74.42
13593;BME280;6867;50.998;4.250;2024-03-17T00:46:49;101845.03;;;9.04;74.75
13593;BME280;6867;50.998;4.250;2024-03-17T00:49:15;101839.50;;;8.89;75.03
13593;BME280;6867;50.998;4.250;2024-03-17T00:51:42;101848.91;;;8.77;75.02
13593;BME280;6867;50.998;4.250;2024-03-17T00:54:08;101856.81;;;8.62;75.90
13593;BME280;6867;50.998;4.250;2024-03-17T00:56:36;101865.50;;;8.72;75.99
13593;BME280;6867;50.998;4.250;2024-03-17T00:59:01;101866.19;;;8.75;76.09
13593;BME280;6867;50.998;4.250;2024-03-17T01:01:28;101860.94;;;8.89;75.80
13593;BME280;6867;50.998;4.250;2024-03-17T01:03:53;101860.63;;;8.84;76.19
13593;BME280;6867;50.998;4.250;2024-03-17T01:06:21;101850.22;;;8.89;76.01
13593;BME280;6867;50.998;4.250;2024-03-17T01:08:46;101868.34;;;8.79;76.49
13593;BME280;6867;50.998;4.250;2024-03-17T01:11:14;101862.78;;;8.89;76.27
13593;BME280;6867;50.998;4.250;2024-03-17T01:13:43;101863.13;;;8.78;76.58
13593;BME280;6867;50.998;4.250;2024-03-17T01:16:09;101859.47;;;8.87;76.22
13593;BME280;6867;50.998;4.250;2024-03-17T01:18:35;101850.94;;;8.83;76.17
13593;BME280;6867;50.998;4.250;2024-03-17T01:21:03;101849.59;;;8.79;76.25
13593;BME280;6867;50.998;4.250;2024-03-17T01:23:28;101843.41;;;8.62;76.57
13593;BME280;6867;50.998;4.250;2024-03-17T01:25:55;101846.09;;;8.70;76.24
13593;BME280;6867;50.998;4.250;2024-03-17T01:28:22;101846.75;;;8.56;76.71
13593;BME280;6867;50.998;4.250;2024-03-17T01:30:49;101852.59;;;8.84;76.46
13593;BME280;6867;50.998;4.250;2024-03-17T01:33:15;101852.28;;;8.79;77.20
13593;BME280;6867;50.998;4.250;2024-03-17T01:35:42;101843.72;;;8.76;77.81
13593;BME280;6867;50.998;4.250;2024-03-17T01:38:09;101857.09;;;9.00;77.45
13593;BME280;6867;50.998;4.250;2024-03-17T01:40:35;101849.50;;;9.20;77.15
13593;BME280;6867;50.998;4.250;2024-03-17T01:43:02;101836.00;;;9.36;76.47
13593;BME280;6867;50.998;4.250;2024-03-17T01:45:29;101818.13;;;9.37;76.62
13593;BME280;6867;50.998;4.250;2024-03-17T01:47:59;101822.34;;;9.15;76.69
13593;BME280;6867;50.998;4.250;2024-03-17T01:50:26;101833.41;;;9.20;77.51
13593;BME280;6867;50.998;4.250;2024-03-17T01:52:56;101828.53;;;9.23;76.95
13593;BME280;6867;50.998;4.250;2024-03-17T01:55:25;101839.56;;;9.37;77.29
13593;BME280;6867;50.998;4.250;2024-03-17T01:57:52;101831.94;;;9.09;77.30
13593;BME280;6867;50.998;4.250;2024-03-17T02:00:18;101828.19;;;9.27;77.53
13593;BME280;6867;50.998;4.250;2024-03-17T02:02:46;101825.63;;;9.41;77.51
13593;BME280;6867;50.998;4.250;2024-03-17T02:05:13;101815.34;;;9.53;76.88
13593;BME280;6867;50.998;4.250;2024-03-17T02:07:40;101814.88;;;9.50;76.84
13593;BME280;6867;50.998;4.250;2024-03-17T02:10:07;101807.75;;;9.57;76.73
13593;BME280;6867;50.998;4.250;2024-03-17T02:12:35;101793.00;;;9.61;76.99
13593;BME280;6867;50.998;4.250;2024-03-17T02:15:01;101787.78;;;9.67;76.13
13593;BME280;6867;50.998;4.250;2024-03-17T02:17:30;101782.75;;;9.64;76.08
13593;BME280;6867;50.998;4.250;2024-03-17T02:19:56;101785.16;;;9.82;75.83
13593;BME280;6867;50.998;4.250;2024-03-17T02:22:24;101774.53;;;9.89;75.40
13593;BME280;6867;50.998;4.250;2024-03-17T02:24:50;101770.97;;;9.96;75.53
13593;BME280;6867;50.998;4.250;2024-03-17T02:27:16;101768.09;;;9.98;75.43
13593;BME280;6867;50.998;4.250;2024-03-17T02:29:42;101760.28;;;10.11;74.55
13593;BME280;6867;50.998;4.250;2024-03-17T02:32:09;101754.88;;;9.96;75.02
13593;BME280;6867;50.998;4.250;2024-03-17T02:34:35;101769.28;;;10.18;75.40
13593;BME280;6867;50.998;4.250;2024-03-17T02:37:02;101750.63;;;10.02;74.53
13593;BME280;6867;50.998;4.250;2024-03-17T02:39:31;101752.47;;;10.02;75.12
13593;BME280;6867;50.998;4.250;2024-03-17T02:42:00;101748.28;;;10.22;74.05
13593;BME280;6867;50.998;4.250;2024-03-17T02:44:25;101734.81;;;10.30;73.77
13593;BME280;6867;50.998;4.250;2024-03-17T02:46:52;101740.16;;;10.07;73.86
13593;BME280;6867;50.998;4.250;2024-03-17T02:49:19;101740.72;;;10.03;74.80
13593;BME280;6867;50.998;4.250;2024-03-17T02:51:45;101732.78;;;10.09;74.46
13593;BME280;6867;50.998;4.250;2024-03-17T02:54:12;101731.28;;;10.07;74.57
13593;BME280;6867;50.998;4.250;2024-03-17T02:56:40;101721.59;;;9.83;74.73
13593;BME280;6867;50.998;4.250;2024-03-17T02:59:07;101714.53;;;9.82;74.25
13593;BME280;6867;50.998;4.250;2024-03-17T03:01:34;101720.56;;;9.61;74.68
13593;BME280;6867;50.998;4.250;2024-03-17T03:04:00;101744.72;;;9.61;75.83
13593;BME280;6867;50.998;4.250;2024-03-17T03:06:27;101741.22;;;9.83;74.98
13593;BME280;6867;50.998;4.250;2024-03-17T03:08:54;101737.69;;;9.83;75.15
13593;BME280;6867;50.998;4.250;2024-03-17T03:11:20;101731.72;;;9.95;74.85
13593;BME280;6867;50.998;4.250;2024-03-17T03:13:48;101710.63;;;9.92;74.11
13593;BME280;6867;50.998;4.250;2024-03-17T03:16:15;101717.53;;;9.87;74.42
13593;BME280;6867;50.998;4.250;2024-03-17T03:18:43;101720.44;;;9.77;75.04
13593;BME280;6867;50.998;4.250;2024-03-17T03:21:11;101737.69;;;10.06;74.59
13593;BME280;6867;50.998;4.250;2024-03-17T03:23:38;101735.66;;;9.85;75.13
13593;BME280;6867;50.998;4.250;2024-03-17T03:26:05;101722.38;;;9.91;75.59
13593;BME280;6867;50.998;4.250;2024-03-17T03:28:35;101726.03;;;9.90;74.80
13593;BME280;6867;50.998;4.250;2024-03-17T03:31:03;101729.81;;;10.04;74.96
13593;BME280;6867;50.998;4.250;2024-03-17T03:33:30;101714.69;;;10.03;75.52
13593;BME280;6867;50.998;4.250;2024-03-17T03:35:57;101720.94;;;10.04;75.30
13593;BME280;6867;50.998;4.250;2024-03-17T03:38:24;101705.31;;;9.84;75.50
13593;BME280;6867;50.998;4.250;2024-03-17T03:40:50;101709.16;;;10.05;75.41
13593;BME280;6867;50.998;4.250;2024-03-17T03:43:18;101698.97;;;10.00;75.03
13593;BME280;6867;50.998;4.250;2024-03-17T03:45:45;101688.34;;;10.07;74.07
13593;BME280;6867;50.998;4.250;2024-03-17T03:48:13;101666.69;;;9.70;74.89
13593;BME280;6867;50.998;4.250;2024-03-17T03:50:40;101681.81;;;9.63;75.28
13593;BME280;6867;50.998;4.250;2024-03-17T03:53:07;101675.75;;;9.46;75.57
13593;BME280;6867;50.998;4.250;2024-03-17T03:55:33;101681.16;;;9.38;75.50
13593;BME280;6867;50.998;4.250;2024-03-17T03:58:00;101673.16;;;9.30;75.63
13593;BME280;6867;50.998;4.250;2024-03-17T04:00:29;101675.72;;;9.23;75.81
13593;BME280;6867;50.998;4.250;2024-03-17T04:02:58;101678.03;;;9.04;76.29
13593;BME280;6867;50.998;4.250;2024-03-17T04:05:28;101685.41;;;8.93;77.43
13593;BME280;6867;50.998;4.250;2024-03-17T04:07:55;101686.84;;;8.73;77.43
13593;BME280;6867;50.998;4.250;2024-03-17T04:10:21;101698.91;;;8.69;78.31
13593;BME280;6867;50.998;4.250;2024-03-17T04:12:49;101704.78;;;8.64;78.39
13593;BME280;6867;50.998;4.250;2024-03-17T04:15:16;101707.13;;;8.67;78.75
13593;BME280;6867;50.998;4.250;2024-03-17T04:17:42;101705.31;;;8.60;78.81
13593;BME280;6867;50.998;4.250;2024-03-17T04:20:10;101708.75;;;8.77;78.77
13593;BME280;6867;50.998;4.250;2024-03-17T04:22:40;101696.25;;;9.08;78.06
13593;BME280;6867;50.998;4.250;2024-03-17T04:25:08;101676.78;;;9.14;77.48
13593;BME280;6867;50.998;4.250;2024-03-17T04:27:35;101661.31;;;8.93;77.33
13593;BME280;6867;50.998;4.250;2024-03-17T04:30:02;101673.66;;;8.63;78.37
13593;BME280;6867;50.998;4.250;2024-03-17T04:32:31;101688.22;;;8.61;78.75
13593;BME280;6867;50.998;4.250;2024-03-17T04:34:58;101697.78;;;8.63;79.17
13593;BME280;6867;50.998;4.250;2024-03-17T04:37:24;101690.03;;;8.68;78.97
13593;BME280;6867;50.998;4.250;2024-03-17T04:39:52;101690.91;;;8.61;78.72
13593;BME280;6867;50.998;4.250;2024-03-17T04:42:22;101686.41;;;8.61;78.94
13593;BME280;6867;50.998;4.250;2024-03-17T04:44:49;101691.59;;;8.55;79.18
13593;BME280;6867;50.998;4.250;2024-03-17T04:47:16;101692.25;;;8.57;79.14
13593;BME280;6867;50.998;4.250;2024-03-17T04:49:44;101697.16;;;8.45;80.17
13593;BME280;6867;50.998;4.250;2024-03-17T04:52:11;101697.28;;;8.52;79.47
13593;BME280;6867;50.998;4.250;2024-03-17T04:54:38;101687.41;;;8.52;79.60
13593;BME280;6867;50.998;4.250;2024-03-17T04:57:09;101687.28;;;8.37;80.10
13593;BME280;6867;50.998;4.250;2024-03-17T04:59:36;101693.78;;;8.35;80.49
13593;BME280;6867;50.998;4.250;2024-03-17T05:02:04;101694.63;;;8.43;80.43
13593;BME280;6867;50.998;4.250;2024-03-17T05:04:30;101704.31;;;8.53;80.72
13593;BME280;6867;50.998;4.250;2024-03-17T05:06:57;101685.41;;;8.54;79.79
13593;BME280;6867;50.998;4.250;2024-03-17T05:09:24;101674.72;;;8.46;80.18
13593;BME280;6867;50.998;4.250;2024-03-17T05:11:50;101686.94;;;8.48;80.14
13593;BME280;6867;50.998;4.250;2024-03-17T05:14:19;101690.91;;;8.53;80.11
13593;BME280;6867;50.998;4.250;2024-03-17T05:16:48;101689.56;;;8.57;79.96
13593;BME280;6867;50.998;4.250;2024-03-17T05:19:15;101697.28;;;8.60;80.47
13593;BME280;6867;50.998;4.250;2024-03-17T05:21:43;101698.47;;;8.57;80.72
13593;BME280;6867;50.998;4.250;2024-03-17T05:24:10;101710.00;;;8.66;80.39
13593;BME280;6867;50.998;4.250;2024-03-17T05:26:37;101712.25;;;8.85;80.44
13593;BME280;6867;50.998;4.250;2024-03-17T05:29:04;101705.00;;;8.94;80.23
13593;BME280;6867;50.998;4.250;2024-03-17T05:31:32;101687.56;;;8.98;80.53
13593;BME280;6867;50.998;4.250;2024-03-17T05:33:58;101682.81;;;9.16;80.00
13593;BME280;6867;50.998;4.250;2024-03-17T05:36:25;101683.94;;;9.22;79.51
13593;BME280;6867;50.998;4.250;2024-03-17T05:38:52;101684.72;;;9.31;79.63
13593;BME280;6867;50.998;4.250;2024-03-17T05:41:19;101682.47;;;9.42;79.43
13593;BME280;6867;50.998;4.250;2024-03-17T05:43:45;101688.13;;;9.47;79.40
13593;BME280;6867;50.998;4.250;2024-03-17T05:46:14;101684.69;;;9.62;78.23
13593;BME280;6867;50.998;4.250;2024-03-17T05:48:42;101670.69;;;9.75;77.91
13593;BME280;6867;50.998;4.250;2024-03-17T05:51:10;101662.78;;;9.73;77.53
13593;BME280;6867;50.998;4.250;2024-03-17T05:53:37;101669.00;;;9.73;77.72
13593;BME280;6867;50.998;4.250;2024-03-17T05:56:06;101666.44;;;9.80;77.84
13593;BME280;6867;50.998;4.250;2024-03-17T05:58:34;101667.75;;;9.84;77.43
13593;BME280;6867;50.998;4.250;2024-03-17T06:01:02;101670.78;;;9.81;77.26
13593;BME280;6867;50.998;4.250;2024-03-17T06:03:28;101673.38;;;9.75;77.73
13593;BME280;6867;50.998;4.250;2024-03-17T06:05:58;101658.38;;;9.80;77.46
13593;BME280;6867;50.998;4.250;2024-03-17T06:08:25;101663.31;;;9.91;77.33
13593;BME280;6867;50.998;4.250;2024-03-17T06:10:52;101659.00;;;10.05;76.59
13593;BME280;6867;50.998;4.250;2024-03-17T06:13:19;101651.31;;;10.02;76.71
13593;BME280;6867;50.998;4.250;2024-03-17T06:15:46;101664.84;;;10.09;75.91
13593;BME280;6867;50.998;4.250;2024-03-17T06:18:13;101667.31;;;10.10;76.78
13593;BME280;6867;50.998;4.250;2024-03-17T06:20:43;101673.19;;;10.14;76.47
13593;BME280;6867;50.998;4.250;2024-03-17T06:23:12;101678.47;;;10.22;76.50
13593;BME280;6867;50.998;4.250;2024-03-17T06:25:40;101675.59;;;10.23;76.55
13593;BME280;6867;50.998;4.250;2024-03-17T06:28:07;101672.59;;;10.41;75.70
13593;BME280;6867;50.998;4.250;2024-03-17T06:30:34;101666.59;;;10.54;75.51
13593;BME280;6867;50.998;4.250;2024-03-17T06:33:02;101608.81;;;11.59;72.36
13593;BME280;6867;50.998;4.250;2024-03-17T06:35:29;101645.94;;;11.06;73.66
13593;BME280;6867;50.998;4.250;2024-03-17T06:37:59;101656.66;;;10.55;74.64
13593;BME280;6867;50.998;4.250;2024-03-17T06:40:27;101642.38;;;10.69;74.62
13593;BME280;6867;50.998;4.250;2024-03-17T06:42:54;101656.94;;;10.75;74.65
13593;BME280;6867;50.998;4.250;2024-03-17T06:45:21;101658.00;;;10.95;74.40
13593;BME280;6867;50.998;4.250;2024-03-17T06:47:48;101650.59;;;10.97;73.94
13593;BME280;6867;50.998;4.250;2024-03-17T06:50:15;101646.41;;;10.94;74.38
13593;BME280;6867;50.998;4.250;2024-03-17T06:52:41;101654.13;;;11.19;73.74
13593;BME280;6867;50.998;4.250;2024-03-17T06:55:08;101637.38;;;11.17;73.40
13593;BME280;6867;50.998;4.250;2024-03-17T06:57:36;101640.19;;;11.30;73.23
13593;BME280;6867;50.998;4.250;2024-03-17T07:00:04;101673.38;;;11.80;73.01
13593;BME280;6867;50.998;4.250;2024-03-17T07:02:31;101598.38;;;11.99;70.60
13593;BME280;6867;50.998;4.250;2024-03-17T07:04:58;101629.22;;;11.53;71.80
13593;BME280;6867;50.998;4.250;2024-03-17T07:07:26;101645.91;;;11.63;72.42
13593;BME280;6867;50.998;4.250;2024-03-17T07:09:53;101656.34;;;11.52;72.41
13593;BME280;6867;50.998;4.250;2024-03-17T07:12:20;101659.03;;;11.52;72.76
13593;BME280;6867;50.998;4.250;2024-03-17T07:14:51;101653.16;;;11.41;72.97
13593;BME280;6867;50.998;4.250;2024-03-17T07:17:18;101664.41;;;11.52;72.75
13593;BME280;6867;50.998;4.250;2024-03-17T07:19:44;101664.03;;;11.33;73.09
13593;BME280;6867;50.998;4.250;2024-03-17T07:22:11;101688.13;;;11.41;73.74
13593;BME280;6867;50.998;4.250;2024-03-17T07:24:37;101677.63;;;11.68;72.61
13593;BME280;6867;50.998;4.250;2024-03-17T07:27:04;101682.63;;;11.71;72.51
13593;BME280;6867;50.998;4.250;2024-03-17T07:29:34;101676.72;;;11.61;72.50
13593;BME280;6867;50.998;4.250;2024-03-17T07:32:02;101696.53;;;11.96;72.21
13593;BME280;6867;50.998;4.250;2024-03-17T07:34:30;101698.25;;;12.04;72.25
13593;BME280;6867;50.998;4.250;2024-03-17T07:36:57;101678.50;;;12.25;71.57
13593;BME280;6867;50.998;4.250;2024-03-17T07:39:28;101691.44;;;12.08;72.07
13593;BME280;6867;50.998;4.250;2024-03-17T07:41:57;101690.22;;;12.38;71.52
13593;BME280;6867;50.998;4.250;2024-03-17T07:44:24;101691.41;;;12.29;71.51
13593;BME280;6867;50.998;4.250;2024-03-17T07:46:51;101691.09;;;12.80;70.96
13593;BME280;6867;50.998;4.250;2024-03-17T07:49:21;101678.47;;;12.46;71.08
13593;BME280;6867;50.998;4.250;2024-03-17T07:51:48;101707.59;;;12.64;71.75
13593;BME280;6867;50.998;4.250;2024-03-17T07:54:15;101705.56;;;12.73;71.79
13593;BME280;6867;50.998;4.250;2024-03-17T07:56:41;101684.31;;;12.98;71.02
13593;BME280;6867;50.998;4.250;2024-03-17T07:59:08;101674.22;;;13.13;70.31
13593;BME280;6867;50.998;4.250;2024-03-17T08:01:37;101675.97;;;13.40;70.04
13593;BME280;6867;50.998;4.250;2024-03-17T08:04:04;101665.00;;;13.42;69.39
13593;BME280;6867;50.998;4.250;2024-03-17T08:06:32;101653.97;;;13.43;68.86
13593;BME280;6867;50.998;4.250;2024-03-17T08:08:59;101668.72;;;13.48;69.35
13593;BME280;6867;50.998;4.250;2024-03-17T08:11:25;101656.94;;;13.82;68.28
13593;BME280;6867;50.998;4.250;2024-03-17T08:13:52;101674.38;;;13.99;68.41
13593;BME280;6867;50.998;4.250;2024-03-17T08:16:19;101661.91;;;13.98;68.55
13593;BME280;6867;50.998;4.250;2024-03-17T08:18:46;101658.13;;;14.32;67.69
13593;BME280;6867;50.998;4.250;2024-03-17T08:21:13;101664.31;;;14.66;66.76
13593;BME280;6867;50.998;4.250;2024-03-17T08:23:41;101647.44;;;14.70;66.49
13593;BME280;6867;50.998;4.250;2024-03-17T08:26:08;101622.19;;;14.90;65.99
13593;BME280;6867;50.998;4.250;2024-03-17T08:28:35;101646.97;;;15.25;65.41
13593;BME280;6867;50.998;4.250;2024-03-17T08:31:02;101636.53;;;15.92;64.17
13593;BME280;6867;50.998;4.250;2024-03-17T08:33:30;101625.16;;;15.52;64.43
13593;BME280;6867;50.998;4.250;2024-03-17T08:36:00;101612.81;;;15.31;64.02
13593;BME280;6867;50.998;4.250;2024-03-17T08:38:27;101629.66;;;15.33;64.09
13593;BME280;6867;50.998;4.250;2024-03-17T08:40:56;101633.28;;;15.52;64.15
13593;BME280;6867;50.998;4.250;2024-03-17T08:43:23;101632.63;;;15.56;63.80
13593;BME280;6867;50.998;4.250;2024-03-17T08:45:57;101631.19;;;15.54;63.69
13593;BME280;6867;50.998;4.250;2024-03-17T08:48:26;101638.63;;;15.65;64.14
13593;BME280;6867;50.998;4.250;2024-03-17T08:50:54;101617.47;;;15.17;64.11
13593;BME280;6867;50.998;4.250;2024-03-17T08:53:21;101624.19;;;15.71;63.35
13593;BME280;6867;50.998;4.250;2024-03-17T08:55:48;101623.09;;;15.79;63.22
13593;BME280;6867;50.998;4.250;2024-03-17T08:58:17;101630.50;;;15.58;63.35
13593;BME280;6867;50.998;4.250;2024-03-17T09:00:44;101650.78;;;15.17;64.98
13593;BME280;6867;50.998;4.250;2024-03-17T09:03:10;101644.84;;;15.97;63.38
13593;BME280;6867;50.998;4.250;2024-03-17T09:05:38;101623.41;;;15.64;63.20
13593;BME280;6867;50.998;4.250;2024-03-17T09:08:06;101627.84;;;15.27;63.78
13593;BME280;6867;50.998;4.250;2024-03-17T09:10:39;101667.31;;;14.96;65.38
13593;BME280;6867;50.998;4.250;2024-03-17T09:13:05;101688.41;;;14.81;66.59
13593;BME280;6867;50.998;4.250;2024-03-17T09:15:33;101720.47;;;14.70;68.04
13593;BME280;6867;50.998;4.250;2024-03-17T09:18:00;101731.09;;;14.45;68.80
13593;BME280;6867;50.998;4.250;2024-03-17T09:20:27;101724.94;;;15.03;68.52
13593;BME280;6867;50.998;4.250;2024-03-17T09:22:54;101724.22;;;14.63;69.20
13593;BME280;6867;50.998;4.250;2024-03-17T09:25:21;101758.13;;;14.39;70.56
13593;BME280;6867;50.998;4.250;2024-03-17T09:27:48;101740.25;;;14.44;70.86
13593;BME280;6867;50.998;4.250;2024-03-17T09:30:15;101746.72;;;14.30;71.44
13593;BME280;6867;50.998;4.250;2024-03-17T09:32:43;101750.44;;;14.29;72.29
13593;BME280;6867;50.998;4.250;2024-03-17T09:35:10;101747.13;;;14.54;72.17
13593;BME280;6867;50.998;4.250;2024-03-17T09:37:36;101740.88;;;14.40;72.23
13593;BME280;6867;50.998;4.250;2024-03-17T09:40:04;101732.97;;;14.25;72.37
13593;BME280;6867;50.998;4.250;2024-03-17T09:42:31;101748.78;;;14.15;73.64
13593;BME280;6867;50.998;4.250;2024-03-17T09:44:58;101739.41;;;14.24;73.52
13593;BME280;6867;50.998;4.250;2024-03-17T09:47:26;101738.81;;;14.22;73.45
13593;BME280;6867;50.998;4.250;2024-03-17T09:49:54;101730.91;;;14.47;73.38
13593;BME280;6867;50.998;4.250;2024-03-17T09:52:21;101720.66;;;14.82;72.57
13593;BME280;6867;50.998;4.250;2024-03-17T09:54:59;101720.69;;;15.27;71.31
13593;BME280;6867;50.998;4.250;2024-03-17T09:57:26;101692.94;;;14.93;71.19
13593;BME280;6867;50.998;4.250;2024-03-17T09:59:54;101692.63;;;15.15;70.98
13593;BME280;6867;50.998;4.250;2024-03-17T10:02:21;101696.31;;;14.82;71.17
13593;BME280;6867;50.998;4.250;2024-03-17T10:04:49;101690.09;;;15.20;70.46
13593;BME280;6867;50.998;4.250;2024-03-17T10:07:17;101709.94;;;15.14;71.25
13593;BME280;6867;50.998;4.250;2024-03-17T10:09:43;101665.22;;;15.43;69.79
13593;BME280;6867;50.998;4.250;2024-03-17T10:12:27;101662.91;;;15.78;68.56
13593;BME280;6867;50.998;4.250;2024-03-17T10:15:00;101637.91;;;16.01;67.65
13593;BME280;6867;50.998;4.250;2024-03-17T10:17:30;101640.38;;;15.84;67.79
13593;BME280;6867;50.998;4.250;2024-03-17T10:20:15;101631.19;;;15.85;67.61
13593;BME280;6867;50.998;4.250;2024-03-17T10:23:03;101644.75;;;16.04;67.61
13593;BME280;6867;50.998;4.250;2024-03-17T10:25:31;101641.03;;;16.41;66.82
13593;BME280;6867;50.998;4.250;2024-03-17T10:27:58;101642.63;;;16.31;66.72
13593;BME280;6867;50.998;4.250;2024-03-17T10:30:26;101650.72;;;16.56;66.35
13593;BME280;6867;50.998;4.250;2024-03-17T10:32:56;101592.31;;;17.32;63.71
13593;BME280;6867;50.998;4.250;2024-03-17T10:35:27;101639.78;;;16.44;65.89
13593;BME280;6867;50.998;4.250;2024-03-17T10:37:55;101646.84;;;16.45;66.25
13593;BME280;6867;50.998;4.250;2024-03-17T10:40:25;101640.75;;;16.31;66.48
13593;BME280;6867;50.998;4.250;2024-03-17T10:42:52;101646.00;;;17.00;66.02
13593;BME280;6867;50.998;4.250;2024-03-17T10:45:18;101610.19;;;17.63;63.85
13593;BME280;6867;50.998;4.250;2024-03-17T10:47:48;101591.22;;;17.75;63.07
13593;BME280;6867;50.998;4.250;2024-03-17T10:50:17;101577.84;;;17.73;62.96
13593;BME280;6867;50.998;4.250;2024-03-17T10:52:46;101545.22;;;17.61;62.04
13593;BME280;6867;50.998;4.250;2024-03-17T10:55:20;101576.09;;;17.25;63.38
13593;BME280;6867;50.998;4.250;2024-03-17T10:57:50;101586.72;;;17.92;62.34
13593;BME280;6867;50.998;4.250;2024-03-17T11:00:19;101554.09;;;17.68;62.19
13593;BME280;6867;50.998;4.250;2024-03-17T11:02:48;101608.75;;;17.07;64.33
13593;BME280;6867;50.998;4.250;2024-03-17T11:05:18;101617.75;;;16.71;65.03
13593;BME280;6867;50.998;4.250;2024-03-17T11:07:48;101632.16;;;16.71;65.81
13593;BME280;6867;50.998;4.250;2024-03-17T11:10:18;101612.50;;;16.94;65.37
13593;BME280;6867;50.998;4.250;2024-03-17T11:12:46;101617.34;;;17.04;65.46
13593;BME280;6867;50.998;4.250;2024-03-17T11:15:40;101606.13;;;18.19;63.52
13593;BME280;6867;50.998;4.250;2024-03-17T11:18:34;101576.16;;;17.72;63.52
13593;BME280;6867;50.998;4.250;2024-03-17T11:21:03;101610.63;;;18.02;64.02
13593;BME280;6867;50.998;4.250;2024-03-17T11:23:36;101597.13;;;18.07;63.73
13593;BME280;6867;50.998;4.250;2024-03-17T11:26:04;101579.53;;;17.98;63.42
13593;BME280;6867;50.998;4.250;2024-03-17T11:28:48;101596.78;;;17.91;64.08
13593;BME280;6867;50.998;4.250;2024-03-17T11:31:37;101588.00;;;18.36;63.50
13593;BME280;6867;50.998;4.250;2024-03-17T11:34:07;101607.16;;;17.29;65.59
13593;BME280;6867;50.998;4.250;2024-03-17T11:36:52;101613.38;;;17.72;65.54
13593;BME280;6867;50.998;4.250;2024-03-17T11:39:45;101609.31;;;17.92;65.42
13593;BME280;6867;50.998;4.250;2024-03-17T11:42:14;101613.00;;;18.74;64.28
13593;BME280;6867;50.998;4.250;2024-03-17T11:44:42;101569.50;;;19.19;62.25
13593;BME280;6867;50.998;4.250;2024-03-17T11:47:12;101549.69;;;18.78;62.50
13593;BME280;6867;50.998;4.250;2024-03-17T11:49:38;101588.06;;;19.56;62.26
13593;BME280;6867;50.998;4.250;2024-03-17T11:52:09;101560.44;;;19.64;61.39
13593;BME280;6867;50.998;4.250;2024-03-17T11:54:37;101578.25;;;19.88;61.39
13593;BME280;6867;50.998;4.250;2024-03-17T11:57:05;101541.13;;;19.49;61.28
13593;BME280;6867;50.998;4.250;2024-03-17T11:59:32;101554.72;;;19.82;61.16
13593;BME280;6867;50.998;4.250;2024-03-17T12:01:59;101534.97;;;19.92;60.35
13593;BME280;6867;50.998;4.250;2024-03-17T12:04:27;101500.06;;;19.72;59.53
13593;BME280;6867;50.998;4.250;2024-03-17T12:06:56;101536.28;;;19.05;61.68
13593;BME280;6867;50.998;4.250;2024-03-17T12:09:23;101559.94;;;18.88;62.81
13593;BME280;6867;50.998;4.250;2024-03-17T12:11:57;101564.63;;;19.38;62.27
13593;BME280;6867;50.998;4.250;2024-03-17T12:14:23;101562.38;;;19.85;61.77
13593;BME280;6867;50.998;4.250;2024-03-17T12:16:51;101553.00;;;19.76;61.89
13593;BME280;6867;50.998;4.250;2024-03-17T12:19:17;101513.53;;;20.23;60.32
13593;BME280;6867;50.998;4.250;2024-03-17T12:21:48;101504.88;;;19.65;60.72
13593;BME280;6867;50.998;4.250;2024-03-17T12:24:17;101504.94;;;19.36;61.26
13593;BME280;6867;50.998;4.250;2024-03-17T12:26:45;101548.50;;;20.04;61.37
13593;BME280;6867;50.998;4.250;2024-03-17T12:29:27;101533.50;;;18.60;63.26
13593;BME280;6867;50.998;4.250;2024-03-17T12:31:56;101513.34;;;18.44;63.14
13593;BME280;6867;50.998;4.250;2024-03-17T12:34:25;101556.28;;;18.42;64.57
13593;BME280;6867;50.998;4.250;2024-03-17T12:36:54;101542.13;;;18.97;63.72
13593;BME280;6867;50.998;4.250;2024-03-17T12:39:22;101520.63;;;19.12;62.49
13593;BME280;6867;50.998;4.250;2024-03-17T12:42:02;101523.50;;;18.49;63.67
13593;BME280;6867;50.998;4.250;2024-03-17T12:44:28;101545.81;;;19.20;63.43
13593;BME280;6867;50.998;4.250;2024-03-17T12:46:56;101506.56;;;18.87;63.06
13593;BME280;6867;50.998;4.250;2024-03-17T12:49:22;101508.22;;;19.05;63.19
13593;BME280;6867;50.998;4.250;2024-03-17T12:51:50;101539.97;;;19.61;63.03
13593;BME280;6867;50.998;4.250;2024-03-17T12:54:19;101479.09;;;20.17;60.77
13593;BME280;6867;50.998;4.250;2024-03-17T12:56:46;101463.66;;;20.27;59.97
13593;BME280;6867;50.998;4.250;2024-03-17T12:59:40;101486.38;;;20.33;60.68
13593;BME280;6867;50.998;4.250;2024-03-17T13:02:25;101447.97;;;20.12;60.14
13593;BME280;6867;50.998;4.250;2024-03-17T13:07:51;101479.00;;;19.51;61.56
13593;BME280;6867;50.998;4.250;2024-03-17T13:10:24;101490.75;;;19.17;62.38
13593;BME280;6867;50.998;4.250;2024-03-17T13:12:58;101488.34;;;19.21;62.61